Time;durP1;ratioP1;P1;durP2;ratioP2;P2;SDS_P1;SDS_P2;PMS_P1;PMS_P2;Temp;Humidity;BMP_temperature;BMP_pressure;BME280_temperature;BME280_humidity;BME280_pressure;Samples;Min_cycle;Max_cycle;Signal;HPM_P1;HPM_P2
2022/07/07 00:00:42;;;;;;;;;1.00;1.00;;;;;22.00;48.89;101997.72;5012127;28;45533;-63
2022/07/07 00:03:07;;;;;;;;;1.67;1.67;;;;;21.94;49.04;101997.72;5011131;28;45979;-62
2022/07/07 00:05:32;;;;;;;;;4.33;3.00;;;;;21.86;49.40;101976.88;5012932;28;45404;-62
2022/07/07 00:07:58;;;;;;;;;2.00;2.00;;;;;21.96;49.32;101994.09;5010830;28;45588;-61
2022/07/07 00:10:23;;;;;;;;;3.00;3.00;;;;;21.98;49.14;101991.41;5011019;28;45514;-62
2022/07/07 00:12:49;;;;;;;;;2.00;2.00;;;;;21.90;49.18;101978.69;5013292;28;45394;-61
2022/07/07 00:15:14;;;;;;;;;1.67;1.67;;;;;21.89;49.64;101986.84;5016215;28;45430;-63
2022/07/07 00:17:40;;;;;;;;;3.33;2.33;;;;;21.92;49.31;101989.56;5010304;28;45624;-62
2022/07/07 00:20:06;;;;;;;;;1.33;1.33;;;;;21.83;49.31;101974.16;5012136;28;45520;-62
2022/07/07 00:22:31;;;;;;;;;4.00;3.00;;;;;21.86;49.38;101984.13;5010993;28;45590;-62
2022/07/07 00:24:57;;;;;;;;;2.00;2.00;;;;;21.69;49.43;101948.78;5012770;28;45561;-63
2022/07/07 00:27:22;;;;;;;;;2.67;2.67;;;;;21.87;49.73;101981.41;5010825;28;45427;-62
2022/07/07 00:29:48;;;;;;;;;3.33;2.00;;;;;21.68;49.59;101958.75;5012081;28;45493;-62
2022/07/07 00:32:13;;;;;;;;;2.00;2.00;;;;;21.84;49.79;101978.69;5009512;28;45478;-61
2022/07/07 00:34:39;;;;;;;;;3.00;2.00;;;;;21.86;49.36;101985.03;5010991;28;45423;-61
2022/07/07 00:37:04;;;;;;;;;5.00;3.00;;;;;21.85;49.56;101980.50;5012573;28;46213;-64
2022/07/07 00:39:29;;;;;;;;;2.00;0.00;;;;;21.84;49.56;101972.34;5016214;28;45457;-62
2022/07/07 00:41:55;;;;;;;;;4.00;2.00;;;;;21.66;49.71;101937.88;5016570;28;45261;-63
2022/07/07 00:44:22;;;;;;;;;1.67;1.00;;;;;21.66;50.43;101954.22;5016955;28;45473;-62
2022/07/07 00:46:51;;;;;;;;;2.00;2.00;;;;;21.72;50.24;101965.09;5015826;28;46328;-63
2022/07/07 00:49:19;;;;;;;;;2.00;2.00;;;;;21.68;50.13;101956.03;5015184;28;45496;-63
2022/07/07 00:51:44;;;;;;;;;2.00;2.00;;;;;21.70;49.96;101956.03;5019003;28;45482;-62
2022/07/07 00:54:11;;;;;;;;;1.00;1.00;;;;;21.66;50.04;101948.78;5015892;28;45368;-62
2022/07/07 00:56:37;;;;;;;;;2.67;2.00;;;;;21.64;50.41;101954.22;5012487;28;45529;-64
2022/07/07 00:59:06;;;;;;;;;1.67;1.00;;;;;21.44;50.61;101924.25;5015312;28;45434;-61
2022/07/07 01:01:34;;;;;;;;;1.33;1.33;;;;;21.56;50.30;101949.69;5015073;28;45537;-63
2022/07/07 01:04:00;;;;;;;;;2.00;2.00;;;;;21.57;50.55;101941.53;5013670;28;45570;-63
2022/07/07 01:06:26;;;;;;;;;3.00;2.00;;;;;21.57;50.27;101937.91;5014146;28;46103;-61
2022/07/07 01:08:53;;;;;;;;;2.67;2.67;;;;;21.60;50.44;101935.19;5015064;28;45522;-63
2022/07/07 01:11:18;;;;;;;;;4.00;3.00;;;;;21.51;50.59;101926.13;5014949;28;45536;-62
2022/07/07 01:13:44;;;;;;;;;2.67;2.67;;;;;21.55;50.47;101935.19;5015108;28;45506;-63
2022/07/07 01:16:09;;;;;;;;;4.00;2.33;;;;;21.48;50.74;101930.63;5015348;28;45904;-63
2022/07/07 01:18:34;;;;;;;;;3.00;3.00;;;;;21.47;50.65;101928.81;5014826;28;45432;-63
2022/07/07 01:21:02;;;;;;;;;3.67;2.00;;;;;21.51;50.58;101933.38;5015011;28;45436;-61
2022/07/07 01:23:28;;;;;;;;;3.00;2.00;;;;;21.55;50.61;101937.91;5013700;28;45472;-63
2022/07/07 01:25:53;;;;;;;;;1.67;1.00;;;;;21.53;50.64;101937.91;5015013;28;45599;-63
2022/07/07 01:28:19;;;;;;;;;5.67;4.00;;;;;21.43;50.61;101916.09;5013683;28;48883;-62
2022/07/07 01:30:44;;;;;;;;;2.33;1.00;;;;;21.51;50.45;101930.66;5015594;28;45476;-63
2022/07/07 01:33:09;;;;;;;;;2.00;2.00;;;;;21.53;50.74;101931.53;5014804;28;45600;-61
2022/07/07 01:35:35;;;;;;;;;1.00;1.00;;;;;21.48;50.61;101931.56;5015831;28;50589;-64
2022/07/07 01:38:01;;;;;;;;;3.00;1.00;;;;;21.40;51.07;101922.47;5015452;28;45560;-62
2022/07/07 01:40:26;;;;;;;;;3.67;2.33;;;;;21.33;51.35;101926.06;5011055;28;46515;-63
2022/07/07 01:42:51;;;;;;;;;3.00;2.00;;;;;21.27;51.28;101917.94;5014992;28;45688;-62
2022/07/07 01:45:16;;;;;;;;;2.67;2.67;;;;;21.19;51.53;101922.47;5016253;28;51008;-63
2022/07/07 01:47:42;;;;;;;;;2.33;2.00;;;;;21.11;51.79;101926.03;5015499;28;45395;-62
2022/07/07 01:50:08;;;;;;;;;2.33;2.33;;;;;21.12;52.01;101924.25;5013671;28;45482;-62
2022/07/07 01:52:33;;;;;;;;;2.00;2.00;;;;;21.11;51.73;101917.91;5014740;28;45360;-63
2022/07/07 01:54:58;;;;;;;;;2.00;2.00;;;;;21.17;51.58;101917.91;5013632;28;46422;-63
2022/07/07 01:57:24;;;;;;;;;3.00;3.00;;;;;21.19;51.42;101912.47;5015177;28;45359;-63
2022/07/07 01:59:49;;;;;;;;;4.00;3.00;;;;;21.17;51.76;101915.19;5013673;28;45436;-62
2022/07/07 02:02:14;;;;;;;;;5.33;2.67;;;;;21.15;51.66;101914.28;5014738;28;45495;-62
2022/07/07 02:04:40;;;;;;;;;0.00;0.00;;;;;21.13;51.34;101901.59;5011641;28;45665;-62
2022/07/07 02:07:06;;;;;;;;;2.00;2.00;;;;;21.12;51.51;101906.13;5013892;28;45968;-62
2022/07/07 02:09:31;;;;;;;;;3.00;3.00;;;;;21.03;52.30;101907.94;5013335;28;45462;-63
2022/07/07 02:11:57;;;;;;;;;4.00;2.67;;;;;20.97;52.12;101897.97;5018544;28;45545;-62
2022/07/07 02:14:22;;;;;;;;;5.33;3.00;;;;;20.85;52.46;101906.97;5012907;28;46001;-62
2022/07/07 02:16:47;;;;;;;;;1.33;1.33;;;;;20.77;52.70;101896.13;5014595;28;45275;-63
2022/07/07 02:19:13;;;;;;;;;3.00;2.00;;;;;20.73;52.99;101896.09;5013478;28;45460;-63
2022/07/07 02:21:38;;;;;;;;;3.00;3.00;;;;;20.71;52.92;101892.47;5014965;28;45312;-63
2022/07/07 02:24:03;;;;;;;;;3.00;3.00;;;;;20.74;53.03;101887.03;5014354;28;45463;-62
2022/07/07 02:26:31;;;;;;;;;3.00;3.00;;;;;20.71;52.74;101889.75;5013085;28;45549;-63
2022/07/07 02:28:57;;;;;;;;;1.00;1.00;;;;;20.71;52.90;101889.75;5014753;28;45542;-62
2022/07/07 02:31:23;;;;;;;;;3.00;3.00;;;;;20.66;52.92;101900.59;5009540;28;45513;-64
2022/07/07 02:33:48;;;;;;;;;2.67;2.00;;;;;20.67;53.01;101898.78;5011788;28;47072;-64
2022/07/07 02:36:14;;;;;;;;;3.00;3.00;;;;;20.72;52.65;101900.63;5013556;28;45494;-62
2022/07/07 02:38:40;;;;;;;;;2.67;1.33;;;;;20.76;52.75;101898.81;5012795;28;45937;-62
2022/07/07 02:41:06;;;;;;;;;2.00;2.00;;;;;20.80;52.76;101895.19;5012018;28;45482;-65
2022/07/07 02:43:32;;;;;;;;;2.00;2.00;;;;;20.73;53.10;101898.81;5014785;28;45532;-62
2022/07/07 02:45:58;;;;;;;;;1.67;1.67;;;;;20.53;53.12;101874.28;5015076;28;45252;-63
2022/07/07 02:48:25;;;;;;;;;3.00;2.67;;;;;20.50;53.53;101883.31;5014037;28;45339;-63
2022/07/07 02:50:51;;;;;;;;;2.00;2.00;;;;;20.60;53.15;101892.41;5013758;28;45295;-62
2022/07/07 02:53:17;;;;;;;;;5.00;4.67;;;;;20.31;53.02;101838.00;5014595;28;46000;-63
2022/07/07 02:55:44;;;;;;;;;3.00;2.67;;;;;20.65;52.96;101890.63;5029177;28;45252;-64
2022/07/07 02:58:11;;;;;;;;;3.00;3.00;;;;;20.64;53.07;101891.56;5029466;28;44919;-63
2022/07/07 03:00:38;;;;;;;;;2.00;2.00;;;;;20.62;53.03;101896.00;5031014;28;45054;-64
2022/07/07 03:03:05;;;;;;;;;3.00;3.00;;;;;20.61;53.37;101891.50;5030531;28;45618;-64
2022/07/07 03:05:32;;;;;;;;;3.00;2.00;;;;;20.64;53.15;101890.63;5029434;28;45243;-63
2022/07/07 03:07:57;;;;;;;;;2.00;2.00;;;;;20.57;53.57;101893.31;5032379;28;45084;-65
2022/07/07 03:10:23;;;;;;;;;3.33;3.33;;;;;20.61;53.43;101888.78;5032298;28;45105;-63
2022/07/07 03:12:49;;;;;;;;;3.00;3.00;;;;;20.62;53.14;101883.38;5031006;28;45424;-64
2022/07/07 03:15:14;;;;;;;;;4.33;4.33;;;;;20.68;53.08;101887.94;5032106;28;45111;-65
2022/07/07 03:17:41;;;;;;;;;3.67;2.00;;;;;20.69;53.12;101887.03;5029142;28;45097;-63
2022/07/07 03:20:07;;;;;;;;;2.00;2.00;;;;;20.67;53.21;101891.53;5013807;28;45292;-63
2022/07/07 03:22:33;;;;;;;;;2.67;2.67;;;;;20.53;53.19;101868.84;5014044;28;46430;-63
2022/07/07 03:24:58;;;;;;;;;5.00;2.00;;;;;20.67;53.43;101887.91;5013966;28;45427;-64
2022/07/07 03:27:23;;;;;;;;;3.00;3.00;;;;;20.66;53.58;101889.75;5014443;28;45537;-63
2022/07/07 03:29:50;;;;;;;;;5.00;3.67;;;;;20.65;53.61;101885.19;5015001;28;45541;-63
2022/07/07 03:32:15;;;;;;;;;4.00;2.00;;;;;20.59;53.46;101882.44;5014586;28;48439;-62
2022/07/07 03:34:41;;;;;;;;;4.00;2.67;;;;;20.60;53.89;101885.16;5018342;28;45607;-64
2022/07/07 03:37:06;;;;;;;;;3.67;3.67;;;;;20.60;54.04;101889.69;5014402;28;45315;-63
2022/07/07 03:39:32;;;;;;;;;2.00;2.00;;;;;20.61;53.83;101888.78;5019125;28;45774;-63
2022/07/07 03:41:57;;;;;;;;;3.33;3.33;;;;;20.47;53.76;101871.53;5013882;28;46583;-63
2022/07/07 03:44:22;;;;;;;;;4.33;3.00;;;;;20.57;53.97;101886.94;5013742;28;51508;-62
2022/07/07 03:46:47;;;;;;;;;3.00;3.00;;;;;20.56;54.03;101885.16;5029432;28;45588;-63
2022/07/07 03:49:13;;;;;;;;;2.00;2.00;;;;;20.52;53.96;101886.03;5014695;28;45535;-64
2022/07/07 03:51:38;;;;;;;;;2.67;2.67;;;;;20.48;54.34;101876.09;5013744;28;45654;-62
2022/07/07 03:54:04;;;;;;;;;3.67;3.00;;;;;20.42;54.49;101874.22;5014091;28;45415;-63
2022/07/07 03:56:29;;;;;;;;;4.00;2.33;;;;;20.34;55.06;101876.94;5014033;28;45505;-63
2022/07/07 03:58:55;;;;;;;;;3.00;3.00;;;;;20.30;55.07;101864.25;5014588;28;45816;-63
2022/07/07 04:01:20;;;;;;;;;3.00;3.00;;;;;20.32;55.27;101873.28;5013730;28;46215;-62
2022/07/07 04:03:46;;;;;;;;;4.00;3.00;;;;;20.31;55.38;101866.06;5012953;28;45530;-63
2022/07/07 04:06:11;;;;;;;;;4.00;2.67;;;;;20.31;55.17;101866.06;5014163;28;45390;-65
2022/07/07 04:08:36;;;;;;;;;6.00;4.67;;;;;20.07;55.30;101828.88;5014082;28;45287;-63
2022/07/07 04:11:02;;;;;;;;;5.00;3.33;;;;;20.17;55.58;101860.56;5014114;28;46023;-63
2022/07/07 04:13:27;;;;;;;;;4.33;3.33;;;;;20.19;55.80;101871.44;5017244;28;45283;-65
2022/07/07 04:15:53;;;;;;;;;4.67;4.00;;;;;20.15;55.81;101880.47;5017345;28;45542;-63
2022/07/07 04:18:18;;;;;;;;;3.00;3.00;;;;;20.17;56.00;101876.84;5017489;28;45446;-65
2022/07/07 04:20:43;;;;;;;;;5.00;5.00;;;;;20.20;56.03;101874.16;5016901;28;46373;-63
2022/07/07 04:23:09;;;;;;;;;5.00;5.00;;;;;20.22;55.90;101875.06;5017036;28;45431;-64
2022/07/07 04:25:34;;;;;;;;;4.00;3.00;;;;;20.20;56.24;101881.38;5017189;28;45455;-63
2022/07/07 04:28:00;;;;;;;;;3.00;3.00;;;;;20.10;56.45;101872.31;5017398;28;45524;-64
2022/07/07 04:30:25;;;;;;;;;3.00;3.00;;;;;20.14;56.31;101873.22;5017112;28;45366;-64
2022/07/07 04:32:50;;;;;;;;;3.67;3.00;;;;;19.74;56.32;101794.34;5017050;28;45419;-65
2022/07/07 04:35:15;;;;;;;;;3.00;3.00;;;;;20.16;56.37;101868.69;5016923;28;45362;-62
2022/07/07 04:37:41;;;;;;;;;3.00;3.00;;;;;20.03;56.44;101854.19;5017512;28;45554;-64
2022/07/07 04:40:07;;;;;;;;;2.67;2.67;;;;;20.18;56.22;101873.25;5016535;28;45993;-63
2022/07/07 04:42:33;;;;;;;;;3.33;3.33;;;;;20.14;56.64;101875.94;5016724;28;45534;-62
2022/07/07 04:44:58;;;;;;;;;4.00;3.33;;;;;20.13;57.11;101887.66;5014386;28;45360;-62
2022/07/07 04:47:23;;;;;;;;;4.33;2.33;;;;;20.07;57.00;101886.75;5016975;28;45332;-61
2022/07/07 04:49:52;;;;;;;;;7.33;6.00;;;;;20.04;57.35;101888.53;5016244;28;45540;-62
2022/07/07 04:52:18;;;;;;;;;5.67;4.00;;;;;19.91;57.40;101874.00;5016509;28;45272;-61
2022/07/07 04:54:43;;;;;;;;;3.67;3.33;;;;;19.98;57.32;101880.34;5016365;28;45365;-62
2022/07/07 04:57:08;;;;;;;;;6.00;4.33;;;;;20.09;57.13;101894.00;5016518;28;45435;-62
2022/07/07 04:59:34;;;;;;;;;8.00;5.33;;;;;20.19;57.07;101904.00;5016492;28;46107;-60
2022/07/07 05:01:59;;;;;;;;;5.67;4.33;;;;;20.23;57.07;101909.44;5016341;28;45415;-64
2022/07/07 05:04:24;;;;;;;;;4.33;3.00;;;;;20.21;57.13;101905.81;5016543;28;45779;-63
2022/07/07 05:06:50;;;;;;;;;2.67;2.67;;;;;20.21;57.09;101907.59;5016454;28;45338;-62
2022/07/07 05:09:15;;;;;;;;;4.67;4.67;;;;;20.23;57.31;101911.25;5016120;28;46034;-63
2022/07/07 05:11:41;;;;;;;;;4.67;4.00;;;;;20.30;57.09;101920.34;5016330;28;45441;-62
2022/07/07 05:14:06;;;;;;;;;6.67;3.33;;;;;20.28;57.21;101911.25;5016412;28;45529;-62
2022/07/07 05:16:31;;;;;;;;;6.00;3.67;;;;;20.33;57.17;101917.66;5014272;28;45554;-63
2022/07/07 05:18:57;;;;;;;;;6.33;5.00;;;;;20.41;57.08;101913.16;5016124;28;46122;-63
2022/07/07 05:21:22;;;;;;;;;6.67;5.00;;;;;20.47;56.98;101928.56;5016101;28;45502;-62
2022/07/07 05:23:48;;;;;;;;;9.00;7.00;;;;;20.42;56.54;101896.84;5015463;28;45407;-63
2022/07/07 05:26:13;;;;;;;;;4.00;2.67;;;;;20.59;56.63;101917.72;5016110;28;45515;-64
2022/07/07 05:28:41;;;;;;;;;5.33;4.00;;;;;20.58;56.56;101913.22;5015761;28;45914;-64
2022/07/07 05:31:12;;;;;;;;;5.00;4.00;;;;;20.62;56.51;101909.59;5031180;28;45509;-63
2022/07/07 05:33:37;;;;;;;;;7.00;6.00;;;;;20.62;56.44;101913.25;5015835;28;45468;-63
2022/07/07 05:36:04;;;;;;;;;5.00;3.67;;;;;20.66;56.35;101918.72;5015953;28;45523;-64
2022/07/07 05:38:29;;;;;;;;;5.67;5.00;;;;;20.44;56.83;101891.44;5015897;28;47225;-62
2022/07/07 05:40:55;;;;;;;;;5.00;5.00;;;;;20.62;57.34;101917.75;5015800;28;45685;-62
2022/07/07 05:43:20;;;;;;;;;4.33;4.33;;;;;20.67;56.86;101915.06;5015684;28;45534;-64
2022/07/07 05:45:46;;;;;;;;;7.33;5.00;;;;;20.71;57.01;101915.09;5015985;28;45436;-64
2022/07/07 05:48:11;;;;;;;;;5.67;4.33;;;;;20.58;56.91;101884.25;5015631;28;46254;-63
2022/07/07 05:50:37;;;;;;;;;5.00;5.00;;;;;20.85;56.75;101916.94;5015620;28;45427;-63
2022/07/07 05:53:02;;;;;;;;;4.00;4.00;;;;;20.93;55.98;101915.16;5015824;28;45375;-65
2022/07/07 05:55:28;;;;;;;;;6.00;5.00;;;;;20.97;56.24;101920.59;5015608;28;45417;-62
2022/07/07 05:57:53;;;;;;;;;9.67;8.33;;;;;21.04;56.33;101918.81;5015438;28;46178;-63
2022/07/07 06:00:18;;;;;;;;;6.00;4.33;;;;;21.03;56.35;101916.09;5030337;28;45320;-64
2022/07/07 06:02:44;;;;;;;;;11.00;8.00;;;;;21.10;55.77;101926.03;5015603;28;45654;-63
2022/07/07 06:05:09;;;;;;;;;8.00;6.00;;;;;21.11;55.90;101925.16;5015569;28;45549;-63
2022/07/07 06:07:35;;;;;;;;;6.33;4.00;;;;;21.11;56.07;101925.16;5015085;28;46474;-61
2022/07/07 06:10:00;;;;;;;;;5.67;4.00;;;;;21.19;56.18;101938.75;5015482;28;45527;-63
2022/07/07 06:12:25;;;;;;;;;11.67;9.00;;;;;21.19;55.60;101933.31;5015136;28;45376;-65
2022/07/07 06:14:51;;;;;;;;;6.00;4.00;;;;;21.29;55.78;101943.28;5015757;28;45494;-64
2022/07/07 06:17:16;;;;;;;;;6.33;6.33;;;;;21.25;55.50;101933.31;5014736;28;46373;-63
2022/07/07 06:19:41;;;;;;;;;7.00;5.67;;;;;21.37;55.38;101955.09;5014924;28;44742;-64
2022/07/07 06:22:07;;;;;;;;;7.33;7.00;;;;;21.40;55.49;101952.38;5015206;28;45463;-64
2022/07/07 06:24:32;;;;;;;;;11.00;6.33;;;;;21.43;55.23;101963.25;5015133;28;45579;-63
2022/07/07 06:26:57;;;;;;;;;7.00;5.33;;;;;21.38;55.03;101953.25;5014753;28;46303;-62
2022/07/07 06:29:23;;;;;;;;;2.67;2.67;;;;;21.26;55.20;101957.78;5013375;28;45498;-64
2022/07/07 06:31:48;;;;;;;;;3.33;3.33;;;;;21.24;55.59;101967.75;5014939;28;45618;-64
2022/07/07 06:34:13;;;;;;;;;5.33;4.00;;;;;21.20;55.57;101970.44;5014323;28;45581;-64
2022/07/07 06:36:39;;;;;;;;;3.00;3.00;;;;;21.21;55.83;101975.88;5013142;28;52822;-65
2022/07/07 06:39:04;;;;;;;;;4.33;4.33;;;;;21.24;56.07;101975.91;5014927;28;45461;-64
2022/07/07 06:41:36;;;;;;;;;4.00;4.00;;;;;21.12;55.91;101955.06;5014506;28;45644;-64
2022/07/07 06:44:04;;;;;;;;;5.67;4.00;;;;;21.28;55.81;101977.75;5015230;28;45738;-63
2022/07/07 06:46:29;;;;;;;;;6.00;5.00;;;;;21.29;55.85;101978.63;5014200;28;46321;-64
2022/07/07 06:48:55;;;;;;;;;6.33;3.33;;;;;21.25;55.98;101977.72;5017188;28;45369;-64
2022/07/07 06:51:21;;;;;;;;;5.33;3.33;;;;;20.96;55.61;101929.66;5014029;28;45408;-64
2022/07/07 06:53:46;;;;;;;;;6.67;4.33;;;;;21.30;55.95;101970.47;5014283;28;45573;-64
2022/07/07 06:56:13;;;;;;;;;8.33;7.67;;;;;21.34;55.72;101980.44;5029298;28;47121;-64
2022/07/07 06:58:38;;;;;;;;;7.67;5.33;;;;;21.39;55.44;101972.31;5014175;28;45600;-64
2022/07/07 07:01:03;;;;;;;;;11.33;11.00;;;;;21.44;55.27;101970.50;5013942;28;45272;-63
2022/07/07 07:03:29;;;;;;;;;4.00;4.00;;;;;21.49;55.11;101976.88;5014432;28;45477;-64
2022/07/07 07:05:54;;;;;;;;;7.00;5.67;;;;;21.52;55.24;101973.25;5019022;28;46036;-64
2022/07/07 07:08:19;;;;;;;;;15.33;13.33;;;;;21.62;54.96;101974.16;5013704;28;47257;-64
2022/07/07 07:10:45;;;;;;;;;4.00;4.00;;;;;21.73;54.69;101980.53;5013875;28;45296;-62
2022/07/07 07:13:10;;;;;;;;;3.00;3.00;;;;;21.63;54.74;101965.09;5014412;28;45663;-65
2022/07/07 07:15:35;;;;;;;;;6.33;4.00;;;;;21.83;54.42;101984.16;5013841;28;46005;-64
2022/07/07 07:18:01;;;;;;;;;8.00;5.00;;;;;21.97;54.23;101997.72;5013922;28;45296;-64
2022/07/07 07:20:26;;;;;;;;;3.00;2.00;;;;;21.93;53.59;101979.56;5014125;28;45391;-65
2022/07/07 07:22:52;;;;;;;;;7.33;4.00;;;;;22.01;53.61;102000.44;5013671;28;45341;-64
2022/07/07 07:25:18;;;;;;;;;9.67;6.33;;;;;21.88;54.03;101979.59;5013658;28;45402;-64
2022/07/07 07:27:44;;;;;;;;;4.00;3.33;;;;;22.05;53.76;102004.06;5011366;28;45449;-63
2022/07/07 07:30:10;;;;;;;;;9.33;5.33;;;;;21.77;53.19;101937.91;5013972;28;45460;-64
2022/07/07 07:32:35;;;;;;;;;4.33;4.00;;;;;22.21;53.00;101999.53;5014054;28;45455;-64
2022/07/07 07:35:00;;;;;;;;;10.00;6.00;;;;;22.29;52.97;102016.78;5013660;28;45955;-63
2022/07/07 07:37:26;;;;;;;;;2.00;2.00;;;;;22.35;52.63;102022.19;5013772;28;45466;-64
2022/07/07 07:39:51;;;;;;;;;6.00;5.00;;;;;22.38;52.77;102016.75;5013298;28;45457;-63
2022/07/07 07:42:17;;;;;;;;;3.00;3.00;;;;;22.51;52.30;102030.34;5012467;28;45571;-64
2022/07/07 07:47:26;;;;;;;;;14.00;11.67;;;;;22.51;52.27;102027.63;5013360;28;45567;-64
2022/07/07 07:49:54;;;;;;;;;4.33;4.33;;;;;22.33;52.23;102012.22;5013037;28;45425;-63
2022/07/07 07:52:19;;;;;;;;;7.67;6.00;;;;;22.44;52.53;102027.63;5013568;28;45472;-62
2022/07/07 07:54:45;;;;;;;;;8.67;7.67;;;;;22.56;52.15;102032.13;5012478;28;45322;-63
2022/07/07 07:57:11;;;;;;;;;3.67;3.67;;;;;22.61;52.05;102037.56;5012864;28;45346;-63
2022/07/07 07:59:37;;;;;;;;;8.33;8.33;;;;;22.31;51.72;101963.22;5012456;28;45221;-65
2022/07/07 08:02:02;;;;;;;;;4.33;4.33;;;;;22.81;51.44;102029.31;5013534;28;45306;-64
2022/07/07 08:04:27;;;;;;;;;4.00;4.00;;;;;22.94;51.20;102028.34;5012790;28;46084;-63
2022/07/07 08:06:53;;;;;;;;;2.33;2.00;;;;;23.02;50.94;102019.25;5012581;28;45245;-63
2022/07/07 08:09:18;;;;;;;;;2.67;2.67;;;;;23.07;50.59;102006.53;5013060;28;45580;-65
2022/07/07 08:11:43;;;;;;;;;5.00;4.00;;;;;23.27;50.33;102017.31;5013122;28;45612;-64
2022/07/07 08:14:09;;;;;;;;;3.00;3.00;;;;;23.44;49.90;102019.94;5012514;28;45633;-64
2022/07/07 08:16:35;;;;;;;;;5.00;2.33;;;;;23.43;49.61;101996.28;5012850;28;45438;-64
2022/07/07 08:19:00;;;;;;;;;1.67;1.67;;;;;23.66;49.27;102016.16;5013471;28;45692;-65
2022/07/07 08:21:25;;;;;;;;;2.00;2.00;;;;;23.64;48.71;101992.50;5012817;28;45409;-64
2022/07/07 08:23:51;;;;;;;;;2.00;2.00;;;;;23.74;48.64;102014.25;5012775;28;47924;-65
2022/07/07 08:26:16;;;;;;;;;2.67;2.67;;;;;23.84;48.11;102017.84;5012627;28;48144;-65
2022/07/07 08:28:41;;;;;;;;;3.67;2.67;;;;;23.97;47.99;102018.63;5012940;28;45457;-63
2022/07/07 08:31:07;;;;;;;;;3.00;3.00;;;;;23.73;47.46;101963.31;5013205;28;45516;-65
2022/07/07 08:33:33;;;;;;;;;1.33;1.33;;;;;24.08;47.58;102008.50;5012994;28;49097;-64
2022/07/07 08:35:58;;;;;;;;;3.00;3.00;;;;;24.13;47.59;102013.94;5013130;28;45553;-64
2022/07/07 08:38:24;;;;;;;;;6.00;4.33;;;;;24.19;47.42;102002.06;5012854;28;45378;-64
2022/07/07 08:40:50;;;;;;;;;6.67;3.67;;;;;24.23;46.96;101990.16;5028418;28;45708;-64
2022/07/07 08:43:15;;;;;;;;;4.67;4.67;;;;;24.11;47.23;101974.81;5012526;28;45639;-65
2022/07/07 08:45:41;;;;;;;;;4.00;2.00;;;;;24.13;46.91;101999.38;5012593;28;45295;-64
2022/07/07 08:48:07;;;;;;;;;6.67;6.67;;;;;24.08;46.99;102000.31;5012940;28;45505;-63
2022/07/07 08:50:34;;;;;;;;;5.00;4.00;;;;;24.08;46.94;102007.63;5013200;28;45528;-66
2022/07/07 08:53:01;;;;;;;;;1.00;1.00;;;;;24.00;46.63;102001.31;5013026;28;47125;-66
2022/07/07 08:55:31;;;;;;;;;1.00;1.00;;;;;24.01;47.19;102017.69;5012490;28;45556;-66
2022/07/07 08:57:57;;;;;;;;;3.33;3.33;;;;;23.82;47.15;101975.06;5012790;28;45297;-64
2022/07/07 09:00:22;;;;;;;;;10.00;7.67;;;;;24.10;46.92;102023.09;5016579;28;45304;-63
2022/07/07 09:02:49;;;;;;;;;2.33;2.33;;;;;24.10;46.63;101997.56;5016378;28;46162;-64
2022/07/07 09:05:15;;;;;;;;;1.67;1.67;;;;;24.29;45.88;102014.69;5016471;28;45365;-64
2022/07/07 09:07:51;;;;;;;;;3.00;1.67;;;;;24.40;45.71;102012.75;5016648;28;45384;-63
2022/07/07 09:10:31;;;;;;;;;17.00;15.33;;;;;24.45;45.98;102005.41;5014489;28;45306;-64
2022/07/07 09:12:56;;;;;;;;;3.33;3.33;;;;;24.62;45.61;102009.81;5009515;28;46335;-64
2022/07/07 09:15:22;;;;;;;;;3.00;2.67;;;;;24.75;45.04;102018.72;5015581;28;45377;-65
2022/07/07 09:17:47;;;;;;;;;5.33;3.33;;;;;24.73;44.52;101988.72;5015871;28;45392;-65
2022/07/07 09:20:13;;;;;;;;;2.33;1.00;;;;;24.94;44.70;102011.22;5016176;28;45531;-65
2022/07/07 09:22:47;;;;;;;;;7.00;7.00;;;;;24.97;44.62;102017.53;5015398;28;46123;-64
2022/07/07 09:25:13;;;;;;;;;7.00;5.33;;;;;24.91;44.46;101994.84;5015396;28;45561;-64
2022/07/07 09:27:48;;;;;;;;;9.67;8.67;;;;;24.92;44.28;102015.81;5014978;28;45524;-64
2022/07/07 09:30:14;;;;;;;;;1.67;1.00;;;;;25.04;44.06;102029.31;5009307;28;45221;-64
2022/07/07 09:32:46;;;;;;;;;5.00;3.00;;;;;24.99;44.05;102032.09;5014843;28;45988;-65
2022/07/07 09:38:24;;;;;;;;;4.67;4.00;;;;;25.07;44.37;102031.09;5021377;28;45332;-65
2022/07/07 09:41:05;;;;;;;;;0.67;0.67;;;;;25.06;44.09;102012.88;5015433;28;45317;-65
2022/07/07 09:43:33;;;;;;;;;4.00;3.33;;;;;25.19;44.34;102039.13;5014583;28;47129;-64
2022/07/07 09:46:21;;;;;;;;;2.00;1.00;;;;;25.19;44.48;102036.41;5014489;28;45296;-64
2022/07/07 09:48:54;;;;;;;;;2.00;2.00;;;;;25.16;44.38;102040.09;5014720;28;45627;-67
2022/07/07 09:51:30;;;;;;;;;3.33;3.00;;;;;25.10;44.64;102058.41;5015184;28;45366;-66
2022/07/07 09:54:12;;;;;;;;;4.00;2.00;;;;;24.97;44.80;102063.13;5014450;28;45466;-66
2022/07/07 09:56:38;;;;;;;;;26.50;24.75;;;;;24.88;44.96;102071.44;5014160;28;45555;-63
2022/07/07 09:59:07;;;;;;;;;1.33;1.33;;;;;24.81;45.46;102074.28;5015397;28;45411;-64
2022/07/07 10:01:34;;;;;;;;;5.00;3.33;;;;;24.74;45.01;102079.81;5015244;28;45442;-64
2022/07/07 10:04:04;;;;;;;;;2.00;2.00;;;;;24.71;45.26;102090.78;5014946;28;45529;-62
2022/07/07 10:06:30;;;;;;;;;10.67;10.67;;;;;24.63;45.27;102086.31;5014764;28;45334;-65
2022/07/07 10:09:00;;;;;;;;;5.00;3.33;;;;;24.61;45.56;102095.44;5014301;28;45475;-63
2022/07/07 10:11:35;;;;;;;;;2.33;2.33;;;;;24.56;45.40;102097.31;5014710;28;45582;-68
2022/07/07 10:14:09;;;;;;;;;12.00;11.33;;;;;24.46;45.77;102094.63;5014147;28;45419;-64
2022/07/07 10:16:35;;;;;;;;;14.67;12.67;;;;;24.34;45.64;102086.56;5014219;28;45403;-64
2022/07/07 10:19:01;;;;;;;;;3.67;3.67;;;;;24.37;45.31;102091.06;5014850;28;45706;-67
2022/07/07 10:21:27;;;;;;;;;6.33;3.67;;;;;24.43;45.44;102116.50;5014818;28;45526;-65
2022/07/07 10:23:53;;;;;;;;;7.33;7.33;;;;;24.44;44.82;102109.25;5014394;28;45462;-67
2022/07/07 10:26:34;;;;;;;;;6.33;5.00;;;;;24.48;45.30;102113.75;5014363;28;45508;-66
2022/07/07 10:29:00;;;;;;;;;2.00;2.00;;;;;24.46;45.20;102121.94;5014233;28;45399;-63
2022/07/07 10:31:27;;;;;;;;;3.00;3.00;;;;;24.45;45.18;102108.28;5014548;28;45514;-64
2022/07/07 10:33:55;;;;;;;;;4.67;3.33;;;;;24.56;44.72;102128.25;5014296;28;46926;-63
2022/07/07 10:36:21;;;;;;;;;3.00;3.00;;;;;24.59;44.53;102119.16;5014496;28;45508;-64
2022/07/07 10:38:51;;;;;;;;;4.00;4.00;;;;;24.54;44.99;102097.28;5014674;28;45456;-63
2022/07/07 10:41:26;;;;;;;;;18.00;17.00;;;;;24.70;44.41;102119.94;5014689;28;45524;-65
2022/07/07 10:44:01;;;;;;;;;18.33;17.00;;;;;24.83;44.22;102128.88;5013994;28;46210;-64
2022/07/07 10:46:26;;;;;;;;;3.00;3.00;;;;;24.72;44.26;102112.63;5013963;28;45488;-69
2022/07/07 10:48:54;;;;;;;;;4.00;2.33;;;;;24.88;44.23;102137.97;5014009;28;45616;-64
2022/07/07 10:51:19;;;;;;;;;2.00;2.00;;;;;24.88;44.45;102134.31;5014193;28;45528;-64
2022/07/07 10:54:03;;;;;;;;;3.33;2.33;;;;;24.81;44.34;102137.13;5013921;28;46080;-64
2022/07/07 10:56:51;;;;;;;;;3.67;2.00;;;;;24.52;44.08;102098.22;5013699;28;45585;-63
2022/07/07 10:59:17;;;;;;;;;14.67;12.00;;;;;24.81;43.97;102141.69;5010386;28;45305;-64
2022/07/07 11:02:00;;;;;;;;;7.33;7.33;;;;;24.71;44.20;102143.59;5014444;28;45507;-64
2022/07/07 11:04:41;;;;;;;;;17.67;14.00;;;;;24.67;44.25;102149.13;5014091;28;45680;-65
2022/07/07 11:07:12;;;;;;;;;4.67;4.33;;;;;24.50;44.42;102125.59;5013604;28;45410;-64
2022/07/07 11:09:54;;;;;;;;;7.67;7.67;;;;;24.17;44.66;102078.53;5007641;28;45489;-67
2022/07/07 11:12:37;;;;;;;;;4.67;4.00;;;;;24.44;45.37;102142.91;5013787;28;45277;-66
2022/07/07 11:15:15;;;;;;;;;9.67;7.33;;;;;24.46;45.21;102145.63;5013428;28;46192;-64
2022/07/07 11:17:41;;;;;;;;;12.00;11.33;;;;;24.42;45.30;102132.94;5013530;28;45476;-66
2022/07/07 11:20:08;;;;;;;;;5.33;3.67;;;;;24.52;45.04;102123.72;5013750;28;45555;-66
2022/07/07 11:22:50;;;;;;;;;13.00;11.67;;;;;24.84;44.74;102153.47;5012991;28;45486;-66
2022/07/07 11:25:21;;;;;;;;;5.00;5.00;;;;;25.04;44.09;102160.56;5007035;28;46409;-67
2022/07/07 11:27:48;;;;;;;;;6.33;6.33;;;;;25.20;43.72;102154.00;5009331;28;45347;-66